createdAt,value
2018-09-10T00:01:52.125Z,8.20
2018-09-10T00:04:27.941Z,7.83
2018-09-10T00:06:59.751Z,8.47
2018-09-10T00:09:29.663Z,7.67
2018-09-10T00:12:07.071Z,7.60
2018-09-10T00:14:37.742Z,8.20
2018-09-10T00:17:09.190Z,7.30
2018-09-10T00:19:40.413Z,7.60
2018-09-10T00:22:10.493Z,7.77
2018-09-10T00:24:40.511Z,8.83
2018-09-10T00:27:12.236Z,7.90
2018-09-10T00:29:51.780Z,8.00
2018-09-10T00:32:23.757Z,8.13
2018-09-10T00:34:53.754Z,7.90
2018-09-10T00:37:26.816Z,7.63
2018-09-10T00:40:07.271Z,7.77
2018-09-10T00:42:37.370Z,8.10
2018-09-10T00:45:09.060Z,7.83
2018-09-10T00:47:40.571Z,7.90
2018-09-10T00:50:19.406Z,9.00
2018-09-10T00:52:49.356Z,8.57
2018-09-10T00:55:20.987Z,7.90
2018-09-10T00:57:52.465Z,9.90
2018-09-10T01:00:23.566Z,10.80
2018-09-10T01:02:54.879Z,9.00
2018-09-10T01:05:26.779Z,7.43
2018-09-10T01:07:58.408Z,7.20
2018-09-10T01:10:29.948Z,8.17
2018-09-10T01:13:01.918Z,7.77
2018-09-10T01:15:33.552Z,8.23
2018-09-10T01:18:04.862Z,7.87
2018-09-10T01:20:37.702Z,7.97
2018-09-10T01:23:16.934Z,8.00
2018-09-10T01:25:54.162Z,8.03
2018-09-10T01:28:34.003Z,8.30
2018-09-10T01:31:11.828Z,7.90
2018-09-10T01:33:48.388Z,7.90
2018-09-10T01:36:21.849Z,7.80
2018-09-10T01:39:00.687Z,8.03
2018-09-10T01:41:30.526Z,7.00
2018-09-10T01:44:09.497Z,7.47
2018-09-10T01:46:40.917Z,6.93
2018-09-10T01:49:19.889Z,7.03
2018-09-10T01:51:51.409Z,7.73
2018-09-10T01:54:30.915Z,7.30
2018-09-10T01:57:06.326Z,8.20
2018-09-10T01:59:38.024Z,7.27
2018-09-10T02:02:15.464Z,6.83
2018-09-10T02:05:50.273Z,10.77
2018-09-10T02:08:29.427Z,7.47
2018-09-10T02:11:00.986Z,7.77
2018-09-10T02:13:32.133Z,7.20
2018-09-10T02:16:03.852Z,7.27
2018-09-10T02:18:40.824Z,6.97
2018-09-10T02:21:20.151Z,7.20
2018-09-10T02:23:51.260Z,7.63
2018-09-10T02:26:31.263Z,6.87
2018-09-10T02:29:02.833Z,6.97
2018-09-10T02:31:34.683Z,7.27
2018-09-10T02:34:10.762Z,7.80
2018-09-10T02:36:41.843Z,7.97
2018-09-10T02:39:11.590Z,7.47
2018-09-10T02:41:45.651Z,7.90
2018-09-10T02:44:16.855Z,7.57
2018-09-10T02:46:49.029Z,7.60
2018-09-10T02:49:21.002Z,7.50
2018-09-10T02:51:52.635Z,7.43
2018-09-10T02:54:31.826Z,7.50
2018-09-10T02:57:07.928Z,7.07
2018-09-10T02:59:46.626Z,7.43
2018-09-10T03:02:18.152Z,8.73
2018-09-10T03:04:49.787Z,7.37
2018-09-10T03:07:21.538Z,6.73
2018-09-10T03:10:00.611Z,7.90
2018-09-10T03:12:37.579Z,7.70
2018-09-10T03:15:08.918Z,7.00
2018-09-10T03:17:40.799Z,6.93
2018-09-10T03:20:10.772Z,8.80
2018-09-10T03:22:42.209Z,7.90
2018-09-10T03:25:21.619Z,7.80
2018-09-10T03:27:53.330Z,7.43
2018-09-10T03:30:24.409Z,9.53
2018-09-10T03:32:55.969Z,7.97
2018-09-10T03:35:27.308Z,8.07
2018-09-10T03:38:06.906Z,10.10
2018-09-10T03:40:38.139Z,7.20
2018-09-10T03:43:17.192Z,6.93
2018-09-10T03:45:47.262Z,7.20
2018-09-10T03:48:18.663Z,8.17
2018-09-10T03:50:50.154Z,7.17
2018-09-10T03:53:21.693Z,7.00
2018-09-10T03:55:53.382Z,7.00
2018-09-10T03:58:24.556Z,7.50
2018-09-10T04:01:03.295Z,7.20
2018-09-10T04:03:42.651Z,7.97
2018-09-10T04:06:21.805Z,6.90
2018-09-10T04:09:00.354Z,8.03
2018-09-10T04:11:36.224Z,6.90
2018-09-10T04:14:15.815Z,9.00
2018-09-10T04:16:47.463Z,8.70
2018-09-10T04:19:23.145Z,7.20
2018-09-10T04:21:54.543Z,8.20
2018-09-10T04:24:26.734Z,8.03
2018-09-10T04:26:56.503Z,7.47
2018-09-10T04:29:26.713Z,6.70
2018-09-10T04:33:08.904Z,7.00
2018-09-10T04:35:40.463Z,7.90
2018-09-10T04:38:19.599Z,7.10
2018-09-10T04:40:58.874Z,7.10
2018-09-10T04:43:30.065Z,9.73
2018-09-10T04:46:01.725Z,6.90
2018-09-10T04:48:33.434Z,7.80
2018-09-10T04:51:11.051Z,6.90
2018-09-10T04:53:49.928Z,6.93
2018-09-10T04:56:22.339Z,7.80
2018-09-10T04:58:54.148Z,7.37
2018-09-10T05:01:25.618Z,7.17
2018-09-10T05:03:57.419Z,6.87
2018-09-10T05:06:29.278Z,8.27
2018-09-10T05:09:02.748Z,6.57
2018-09-10T05:11:41.507Z,7.33
2018-09-10T05:14:12.997Z,7.03
2018-09-10T05:16:52.825Z,8.27
2018-09-10T05:19:24.129Z,6.67
2018-09-10T05:21:55.805Z,7.20
2018-09-10T05:24:27.068Z,7.27
2018-09-10T05:27:04.268Z,7.73
2018-09-10T05:29:35.890Z,7.63
2018-09-10T05:32:07.597Z,7.33
2018-09-10T05:34:39.553Z,6.90
2018-09-10T05:37:11.282Z,7.43
2018-09-10T05:39:42.977Z,7.43
2018-09-10T05:42:14.463Z,7.10
2018-09-10T05:44:53.686Z,6.73
2018-09-10T05:47:25.374Z,6.93
2018-09-10T05:50:04.067Z,8.00
2018-09-10T05:52:35.475Z,7.23
2018-09-10T05:55:07.008Z,7.53
2018-09-10T05:57:37.358Z,6.83
2018-09-10T06:00:09.607Z,6.83
2018-09-10T06:02:43.259Z,6.37
2018-09-10T06:05:13.268Z,6.30
2018-09-10T06:07:43.217Z,6.93
2018-09-10T06:10:14.559Z,7.27
2018-09-10T06:12:45.827Z,7.40
2018-09-10T06:15:15.869Z,5.97
2018-09-10T06:17:47.637Z,6.90
2018-09-10T06:20:18.597Z,6.40
2018-09-10T06:22:50.197Z,6.13
2018-09-10T06:25:21.817Z,8.10
2018-09-10T06:28:01.274Z,6.80
2018-09-10T06:30:33.630Z,7.70
2018-09-10T06:33:05.670Z,7.07
2018-09-10T06:35:35.627Z,7.03
2018-09-10T06:38:07.689Z,6.13
2018-09-10T06:40:46.711Z,8.27
2018-09-10T06:43:22.574Z,7.00
2018-09-10T06:45:54.414Z,6.73
2018-09-10T06:48:25.816Z,6.60
2018-09-10T06:50:57.035Z,6.40
2018-09-10T06:53:28.415Z,8.53
2018-09-10T06:56:07.397Z,6.43
2018-09-10T06:58:39.898Z,6.90
2018-09-10T07:01:18.754Z,8.57
2018-09-10T07:03:50.363Z,6.50
2018-09-10T07:06:29.451Z,6.63
2018-09-10T07:09:09.319Z,6.13
2018-09-10T07:11:48.276Z,7.03
2018-09-10T07:14:27.799Z,7.80
2018-09-10T07:16:59.169Z,6.73
2018-09-10T07:19:38.343Z,6.80
2018-09-10T07:22:17.239Z,5.47
2018-09-10T07:24:56.794Z,6.53
2018-09-10T07:27:35.846Z,5.73
2018-09-10T07:30:15.185Z,5.90
2018-09-10T07:32:51.742Z,6.10
2018-09-10T07:35:31.182Z,5.80
2018-09-10T07:38:10.205Z,6.00
2018-09-10T07:40:49.456Z,5.83
2018-09-10T07:43:28.629Z,5.93
2018-09-10T07:46:08.065Z,5.10
2018-09-10T07:48:46.892Z,6.20
2018-09-10T07:51:25.685Z,5.60
2018-09-10T07:54:00.112Z,5.90
2018-09-10T07:56:38.124Z,5.57
2018-09-10T07:59:17.749Z,5.60
2018-09-10T08:01:55.109Z,5.80
2018-09-10T08:04:35.878Z,5.50
2018-09-10T08:07:14.923Z,5.33
2018-09-10T08:09:54.066Z,5.40
2018-09-10T08:12:33.607Z,5.50
2018-09-10T08:15:13.028Z,5.33
2018-09-10T08:17:52.344Z,5.93
2018-09-10T08:20:31.411Z,6.47
2018-09-10T08:23:09.161Z,6.23
2018-09-10T08:25:48.391Z,5.50
2018-09-10T08:28:25.179Z,5.70
2018-09-10T08:31:04.248Z,6.77
2018-09-10T08:33:44.725Z,5.80
2018-09-10T08:36:24.173Z,7.00
2018-09-10T08:39:03.431Z,5.97
2018-09-10T08:41:42.447Z,6.20
2018-09-10T08:44:21.405Z,5.53
2018-09-10T08:47:00.524Z,6.20
2018-09-10T08:49:39.428Z,5.80
2018-09-10T08:52:18.460Z,5.67
2018-09-10T08:54:57.814Z,5.43
2018-09-10T08:57:36.196Z,6.77
2018-09-10T09:00:15.371Z,5.83
2018-09-10T09:02:54.452Z,5.93
2018-09-10T09:05:31.675Z,5.90
2018-09-10T09:08:02.344Z,5.70
2018-09-10T09:10:35.181Z,5.93
2018-09-10T09:13:07.504Z,7.20
2018-09-10T09:15:39.843Z,5.70
2018-09-10T09:18:16.513Z,5.73
2018-09-10T09:20:55.590Z,5.87
2018-09-10T09:23:33.564Z,5.90
2018-09-10T09:26:13.652Z,5.63
2018-09-10T09:28:53.170Z,7.13
2018-09-10T09:31:28.499Z,5.63
2018-09-10T09:34:04.596Z,6.00
2018-09-10T09:36:46.517Z,5.27
2018-09-10T09:39:30.992Z,5.40
2018-09-10T09:42:13.687Z,5.10
2018-09-10T09:44:57.841Z,5.23
2018-09-10T09:47:37.147Z,5.53
2018-09-10T09:50:16.121Z,5.10
2018-09-10T09:52:55.789Z,5.33
2018-09-10T09:55:39.958Z,4.93
2018-09-10T09:58:13.458Z,5.20
2018-09-10T10:01:03.586Z,7.17
2018-09-10T10:03:47.980Z,5.30
2018-09-10T10:06:27.902Z,5.43
2018-09-10T10:09:08.916Z,5.37
2018-09-10T10:11:47.909Z,5.03
2018-09-10T10:14:27.159Z,5.90
2018-09-10T10:17:02.895Z,6.47
2018-09-10T10:19:34.654Z,5.03
2018-09-10T10:22:10.756Z,5.20
2018-09-10T10:24:50.150Z,5.07
2018-09-10T10:27:29.289Z,4.60
2018-09-10T10:30:05.601Z,4.70
2018-09-10T10:32:37.631Z,4.47
2018-09-10T10:35:12.619Z,4.70
2018-09-10T10:37:51.583Z,4.20
2018-09-10T10:40:28.245Z,4.30
2018-09-10T10:43:07.490Z,4.20
2018-09-10T10:45:44.500Z,4.03
2018-09-10T10:48:20.805Z,4.57
2018-09-10T10:50:56.970Z,4.57
2018-09-10T10:53:34.792Z,4.43
2018-09-10T10:56:14.140Z,4.80
2018-09-10T10:58:52.743Z,4.80
2018-09-10T11:01:32.429Z,5.13
2018-09-10T11:04:09.921Z,3.97
2018-09-10T11:06:46.095Z,4.30
2018-09-10T11:09:22.894Z,4.13
2018-09-10T11:12:00.275Z,4.10
2018-09-10T11:14:39.493Z,3.87
2018-09-10T11:17:15.605Z,3.97
2018-09-10T11:19:54.426Z,4.13
2018-09-10T11:22:33.970Z,4.27
2018-09-10T11:25:10.163Z,3.87
2018-09-10T11:27:49.803Z,3.93
2018-09-10T11:30:28.778Z,3.93
2018-09-10T11:33:08.259Z,3.60
2018-09-10T11:35:45.456Z,4.07
2018-09-10T11:38:17.294Z,3.50
2018-09-10T11:40:51.460Z,3.80
2018-09-10T11:43:29.836Z,3.90
2018-09-10T11:46:09.025Z,4.30
2018-09-10T11:48:47.991Z,4.83
2018-09-10T11:51:25.745Z,3.70
2018-09-10T11:54:05.125Z,3.80
2018-09-10T11:56:44.034Z,3.77
2018-09-10T11:59:24.288Z,4.03
2018-09-10T12:02:03.788Z,4.03
2018-09-10T12:04:43.211Z,4.43
2018-09-10T12:07:22.046Z,3.80
2018-09-10T12:10:01.178Z,3.93
2018-09-10T12:12:40.320Z,3.90
2018-09-10T12:15:19.686Z,4.50
2018-09-10T12:17:56.173Z,5.70
2018-09-10T12:20:32.484Z,8.00
2018-09-10T12:23:09.170Z,6.07
2018-09-10T12:25:44.100Z,4.40
2018-09-10T12:28:20.520Z,4.50
2018-09-10T12:30:55.668Z,4.70
2018-09-10T12:33:33.383Z,7.20
2018-09-10T12:36:05.392Z,4.37
2018-09-10T12:38:44.267Z,4.20
2018-09-10T12:41:19.933Z,4.00
2018-09-10T12:43:55.934Z,4.40
2018-09-10T12:46:29.251Z,3.83
2018-09-10T12:49:00.815Z,4.27
2018-09-10T12:51:33.624Z,4.83
2018-09-10T12:54:09.470Z,4.67
2018-09-10T12:56:44.944Z,4.53
2018-09-10T12:59:16.545Z,4.17
2018-09-10T13:01:51.835Z,4.77
2018-09-10T13:04:27.470Z,4.57
2018-09-10T13:07:06.668Z,4.40
2018-09-10T13:09:43.433Z,6.20
2018-09-10T13:12:21.220Z,6.23
2018-09-10T13:15:00.365Z,4.63
2018-09-10T13:17:39.467Z,4.93
2018-09-10T13:20:18.538Z,4.40
2018-09-10T13:22:57.532Z,4.53
2018-09-10T13:25:30.722Z,4.37
2018-09-10T13:28:09.644Z,5.57
2018-09-10T13:30:48.408Z,4.63
2018-09-10T13:33:20.050Z,4.53
2018-09-10T13:36:00.467Z,4.40
2018-09-10T13:38:39.535Z,4.17
2018-09-10T13:41:18.049Z,4.60
2018-09-10T13:43:53.496Z,4.80
2018-09-10T13:46:32.922Z,4.67
2018-09-10T13:49:09.407Z,4.60
2018-09-10T13:51:45.067Z,4.40
2018-09-10T13:54:20.824Z,4.83
2018-09-10T13:56:59.715Z,4.70
2018-09-10T13:59:36.293Z,4.17
2018-09-10T14:02:15.200Z,4.90
2018-09-10T14:04:53.221Z,4.40
2018-09-10T14:07:29.103Z,4.70
2018-09-10T14:10:06.550Z,5.07
2018-09-10T14:12:42.826Z,4.53
2018-09-10T14:15:18.083Z,4.40
2018-09-10T14:17:54.065Z,4.53
2018-09-10T14:20:28.259Z,4.83
2018-09-10T14:23:04.694Z,4.70
2018-09-10T14:25:41.519Z,5.63
2018-09-10T14:28:20.528Z,4.77
2018-09-10T14:30:59.570Z,4.20
2018-09-10T14:33:38.435Z,4.07
2018-09-10T14:36:17.487Z,4.23
2018-09-10T14:38:56.891Z,3.87
2018-09-10T14:41:32.771Z,4.23
2018-09-10T14:44:13.448Z,5.10
2018-09-10T14:46:52.318Z,3.70
2018-09-10T14:49:31.432Z,3.83
2018-09-10T14:52:10.424Z,4.90
2018-09-10T14:54:49.792Z,4.57
2018-09-10T14:57:29.006Z,4.20
2018-09-10T15:00:08.274Z,3.83
2018-09-10T15:02:38.410Z,5.37
2018-09-10T15:05:11.782Z,4.33
2018-09-10T15:07:43.563Z,3.87
2018-09-10T15:10:16.242Z,4.50
2018-09-10T15:12:48.005Z,4.90
2018-09-10T15:15:23.105Z,4.80
2018-09-10T15:18:00.767Z,4.08
2018-09-10T15:20:32.496Z,4.70
2018-09-10T15:23:03.834Z,4.37
2018-09-10T15:25:35.693Z,4.50
2018-09-10T15:28:15.058Z,4.63
2018-09-10T15:30:52.645Z,7.17
2018-09-10T15:33:31.852Z,5.03
2018-09-10T15:36:02.136Z,4.67
2018-09-10T15:38:33.776Z,4.83
2018-09-10T15:41:06.187Z,5.43
2018-09-10T15:43:38.221Z,6.50
2018-09-10T15:46:11.367Z,5.97
2018-09-10T15:48:41.888Z,4.70
2018-09-10T15:51:12.133Z,5.07
2018-09-10T15:53:42.518Z,4.33
2018-09-10T15:56:13.009Z,4.83
2018-09-10T15:58:43.228Z,4.40
2018-09-10T16:01:13.369Z,4.53
2018-09-10T16:03:52.403Z,6.30
2018-09-10T16:06:25.044Z,4.70
2018-09-10T16:08:55.132Z,4.50
2018-09-10T16:11:25.407Z,5.07
2018-09-10T16:13:56.150Z,4.70
2018-09-10T16:16:51.683Z,4.70
2018-09-10T16:19:23.582Z,4.50
2018-09-10T16:21:53.772Z,4.40
2018-09-10T16:24:27.583Z,5.47
2018-09-10T16:26:59.013Z,4.47
2018-09-10T16:29:29.303Z,4.20
2018-09-10T16:32:00.733Z,4.50
2018-09-10T16:34:58.373Z,4.80
2018-09-10T16:37:28.312Z,5.35
2018-09-10T16:40:00.113Z,4.40
2018-09-10T16:42:31.303Z,5.17
2018-09-10T16:45:15.552Z,4.73
2018-09-10T16:47:46.033Z,5.50
2018-09-10T16:50:37.683Z,4.90
2018-09-10T16:53:09.072Z,5.30
2018-09-10T16:56:01.252Z,6.13
2018-09-10T16:58:32.963Z,5.17
2018-09-10T17:01:03.743Z,4.63
2018-09-10T17:03:34.143Z,4.80
2018-09-10T17:06:41.781Z,6.73
2018-09-10T17:09:14.963Z,5.57
2018-09-10T17:11:46.353Z,5.93
2018-09-10T17:14:35.825Z,7.37
2018-09-10T17:17:06.254Z,6.27
2018-09-10T17:19:37.644Z,5.30
2018-09-10T17:22:07.883Z,5.83
2018-09-10T17:24:41.973Z,5.70
2018-09-10T17:27:12.332Z,7.07
2018-09-10T17:29:44.671Z,6.90
2018-09-10T17:32:15.003Z,5.20
2018-09-10T17:34:50.885Z,5.27
2018-09-10T17:37:21.319Z,5.73
2018-09-10T17:39:52.846Z,6.83
2018-09-10T17:42:23.722Z,5.70
2018-09-10T17:45:01.592Z,5.93
2018-09-10T17:47:33.174Z,6.50
2018-09-10T17:50:04.912Z,5.60
2018-09-10T17:52:35.343Z,5.57
2018-09-10T17:55:13.018Z,7.50
2018-09-10T17:57:47.553Z,6.60
2018-09-10T18:00:19.323Z,7.27
2018-09-10T18:02:52.532Z,7.17
2018-09-10T18:05:51.881Z,5.90
2018-09-10T18:08:22.752Z,5.57
2018-09-10T18:10:54.346Z,5.50
2018-09-10T18:13:27.185Z,6.20
2018-09-10T18:16:40.223Z,6.80
2018-09-10T18:19:15.492Z,7.33
2018-09-10T18:21:48.934Z,6.43
2018-09-10T18:24:20.544Z,8.13
2018-09-10T18:26:55.663Z,6.87
2018-09-10T18:29:28.084Z,6.73
2018-09-10T18:32:06.163Z,7.40
2018-09-10T18:34:51.151Z,7.60
2018-09-10T18:37:22.753Z,7.83
2018-09-10T18:39:54.748Z,6.60
2018-09-10T18:42:36.072Z,6.90
2018-09-10T18:45:38.034Z,7.40
2018-09-10T18:48:11.494Z,9.63
2018-09-10T18:50:44.284Z,6.83
2018-09-10T18:53:16.192Z,8.10
2018-09-10T18:55:56.254Z,6.80
2018-09-10T18:58:29.253Z,7.53
2018-09-10T19:01:02.023Z,7.47
2018-09-10T19:03:44.803Z,7.20
2018-09-10T19:06:20.852Z,7.87
2018-09-10T19:08:52.753Z,6.63
2018-09-10T19:11:29.864Z,7.70
2018-09-10T19:14:19.863Z,7.57
2018-09-10T19:16:52.803Z,6.73
2018-09-10T19:19:27.382Z,6.80
2018-09-10T19:22:04.083Z,7.37
2018-09-10T19:24:36.343Z,7.17
2018-09-10T19:27:14.374Z,6.87
2018-09-10T19:30:01.594Z,7.10
2018-09-10T19:32:34.143Z,9.20
2018-09-10T19:35:10.072Z,9.93
2018-09-10T19:37:40.001Z,8.57
2018-09-10T19:40:19.892Z,6.80
2018-09-10T19:42:57.874Z,7.77
2018-09-10T19:45:32.372Z,6.60
2018-09-10T19:48:07.153Z,6.70
2018-09-10T19:50:42.139Z,9.23
2018-09-10T19:53:39.793Z,7.77
2018-09-10T19:56:18.175Z,7.27
2018-09-10T19:58:53.875Z,7.03
2018-09-10T20:01:30.587Z,6.63
2018-09-10T20:07:38.475Z,6.37
2018-09-10T20:10:13.745Z,6.67
2018-09-10T20:12:46.828Z,6.67
2018-09-10T20:15:27.278Z,6.97
2018-09-10T20:18:07.365Z,10.23
2018-09-10T20:20:43.285Z,7.70
2018-09-10T20:23:17.246Z,7.13
2018-09-10T20:25:52.284Z,6.67
2018-09-10T20:28:28.736Z,7.57
2018-09-10T20:31:05.054Z,6.93
2018-09-10T20:34:10.519Z,6.93
2018-09-10T20:36:41.094Z,7.27
2018-09-10T20:39:14.007Z,8.33
2018-09-10T20:41:53.887Z,8.47
2018-09-10T20:44:25.956Z,7.30
2018-09-10T20:47:01.128Z,7.30
2018-09-10T20:49:34.254Z,7.20
2018-09-10T20:52:08.136Z,7.83
2018-09-10T20:54:39.527Z,7.43
2018-09-10T20:57:10.224Z,7.43
2018-09-10T20:59:42.115Z,7.40
2018-09-10T21:02:13.805Z,7.53
2018-09-10T21:04:45.806Z,7.93
2018-09-10T21:07:19.965Z,7.67
2018-09-10T21:09:54.755Z,7.70
2018-09-10T21:12:27.676Z,6.77
2018-09-10T21:15:00.614Z,7.03
2018-09-10T21:17:31.474Z,6.73
2018-09-10T21:20:02.195Z,6.87
2018-09-10T21:22:32.482Z,7.83
2018-09-10T21:25:03.934Z,7.10
2018-09-10T21:27:38.384Z,7.67
2018-09-10T21:30:09.795Z,7.53
2018-09-10T21:32:39.978Z,8.60
2018-09-10T21:35:11.186Z,7.07
2018-09-10T21:37:42.099Z,7.00
2018-09-10T21:40:13.446Z,7.63
2018-09-10T21:42:45.386Z,8.63
2018-09-10T21:45:16.788Z,8.00
2018-09-10T21:47:48.323Z,7.50
2018-09-10T21:50:19.495Z,7.80
2018-09-10T21:52:51.663Z,8.13
2018-09-10T21:55:26.225Z,7.60
2018-09-10T21:57:56.158Z,7.53
2018-09-10T22:00:27.965Z,7.10
2018-09-10T22:03:01.755Z,7.87
2018-09-10T22:05:35.207Z,7.40
2018-09-10T22:08:05.074Z,7.77
2018-09-10T22:10:35.779Z,7.50
2018-09-10T22:13:09.765Z,9.40
2018-09-10T22:15:40.325Z,7.17
2018-09-10T22:18:11.187Z,7.97
2018-09-10T22:20:44.795Z,8.50
2018-09-10T22:23:15.425Z,7.97
2018-09-10T22:25:48.836Z,8.23
2018-09-10T22:28:21.918Z,8.40
2018-09-10T22:30:54.645Z,9.33
2018-09-10T22:33:25.278Z,7.80
2018-09-10T22:35:56.620Z,7.77
2018-09-10T22:38:28.231Z,7.83
2018-09-10T22:40:57.960Z,8.17
2018-09-10T22:43:29.927Z,7.70
2018-09-10T22:46:01.980Z,7.60
2018-09-10T22:48:34.440Z,11.73
2018-09-10T22:51:04.231Z,7.97
2018-09-10T22:53:35.530Z,7.60
2018-09-10T22:56:07.243Z,7.50
2018-09-10T22:58:39.131Z,7.53
2018-09-10T23:01:10.791Z,11.87
2018-09-10T23:03:41.850Z,7.83
2018-09-10T23:06:13.881Z,7.47
2018-09-10T23:08:44.148Z,7.80
2018-09-10T23:11:14.790Z,7.63
2018-09-10T23:13:46.522Z,7.53
2018-09-10T23:16:17.551Z,11.57
2018-09-10T23:18:49.062Z,8.87
2018-09-10T23:21:21.361Z,8.03
2018-09-10T23:23:52.900Z,7.33
2018-09-10T23:26:26.601Z,6.77
2018-09-10T23:28:57.180Z,7.53
2018-09-10T23:31:30.631Z,7.90
2018-09-10T23:34:01.945Z,7.07
2018-09-10T23:36:33.840Z,6.73
2018-09-10T23:39:06.150Z,7.63
2018-09-10T23:41:39.101Z,6.93
2018-09-10T23:44:11.040Z,7.33
2018-09-10T23:46:42.239Z,6.70
2018-09-10T23:49:12.400Z,7.47
2018-09-10T23:51:43.160Z,6.67
2018-09-10T23:54:14.640Z,7.13
2018-09-10T23:56:47.610Z,6.87
2018-09-10T23:59:19.081Z,7.30
